createdAt,value
2023-05-20T00:02:16.781Z,8.20
2023-05-20T00:04:43.992Z,8.20
2023-05-20T00:07:10.841Z,8.20
2023-05-20T00:09:39.579Z,8.20
2023-05-20T00:12:06.843Z,8.20
2023-05-20T00:14:33.739Z,8.10
2023-05-20T00:17:00.583Z,8.20
2023-05-20T00:19:27.499Z,8.10
2023-05-20T00:21:54.334Z,8.10
2023-05-20T00:24:21.161Z,8.10
2023-05-20T00:26:47.942Z,8.10
2023-05-20T00:29:14.804Z,8.10
2023-05-20T00:31:42.114Z,8.10
2023-05-20T00:34:09.851Z,8.10
2023-05-20T00:36:37.103Z,8.10
2023-05-20T00:39:04.042Z,8.10
2023-05-20T00:41:30.913Z,8.00
2023-05-20T00:43:57.824Z,8.00
2023-05-20T00:46:26.498Z,8.00
2023-05-20T00:48:53.734Z,7.90
2023-05-20T00:51:21.094Z,7.90
2023-05-20T00:53:47.960Z,7.90
2023-05-20T00:56:15.340Z,7.90
2023-05-20T00:58:42.289Z,7.90
2023-05-20T01:01:09.188Z,7.80
2023-05-20T01:03:36.551Z,7.80
2023-05-20T01:06:03.628Z,7.80
2023-05-20T01:08:30.692Z,7.80
2023-05-20T01:11:04.872Z,7.80
2023-05-20T01:13:49.159Z,7.80
2023-05-20T01:16:19.048Z,7.80
2023-05-20T01:18:48.685Z,7.80
2023-05-20T01:21:17.440Z,7.80
2023-05-20T01:23:44.385Z,7.70
2023-05-20T01:26:13.960Z,7.70
2023-05-20T01:28:43.849Z,7.70
2023-05-20T01:31:33.051Z,7.70
2023-05-20T01:34:00.870Z,7.70
2023-05-20T01:36:29.084Z,7.60
2023-05-20T01:38:57.582Z,7.60
2023-05-20T01:41:26.916Z,7.60
2023-05-20T01:43:55.359Z,7.60
2023-05-20T01:46:22.507Z,7.50
2023-05-20T01:48:49.418Z,7.50
2023-05-20T01:51:16.768Z,7.40
2023-05-20T01:53:43.777Z,7.40
2023-05-20T01:56:10.892Z,7.30
2023-05-20T01:58:37.675Z,7.30
2023-05-20T02:01:04.564Z,7.20
2023-05-20T02:03:31.436Z,7.20
2023-05-20T02:05:58.304Z,7.20
2023-05-20T02:08:25.151Z,7.10
2023-05-20T02:10:51.964Z,7.10
2023-05-20T02:13:18.879Z,7.00
2023-05-20T02:15:45.853Z,7.00
2023-05-20T02:18:14.012Z,7.00
2023-05-20T02:20:41.291Z,6.90
2023-05-20T02:23:08.722Z,6.90
2023-05-20T02:25:35.961Z,6.90
2023-05-20T02:28:05.782Z,6.80
2023-05-20T02:30:32.568Z,6.80
2023-05-20T02:32:59.941Z,6.80
2023-05-20T02:35:26.823Z,6.80
2023-05-20T02:37:53.710Z,6.70
2023-05-20T02:40:20.877Z,6.70
2023-05-20T02:42:47.810Z,6.70
2023-05-20T02:45:14.674Z,6.70
2023-05-20T02:47:41.491Z,6.60
2023-05-20T02:50:08.920Z,6.60
2023-05-20T02:52:36.184Z,6.50
2023-05-20T02:55:03.200Z,6.50
2023-05-20T02:57:30.123Z,6.40
2023-05-20T02:59:56.982Z,6.50
2023-05-20T03:02:25.091Z,6.50
2023-05-20T03:04:53.930Z,6.50
2023-05-20T03:07:21.668Z,6.50
2023-05-20T03:09:48.747Z,6.40
2023-05-20T03:12:15.727Z,6.40
2023-05-20T03:14:42.567Z,6.40
2023-05-20T03:17:10.040Z,6.40
2023-05-20T03:19:37.094Z,6.40
2023-05-20T03:22:04.333Z,6.40
2023-05-20T03:24:31.154Z,6.40
2023-05-20T03:26:57.982Z,6.40
2023-05-20T03:29:24.742Z,6.40
2023-05-20T03:31:51.829Z,6.40
2023-05-20T03:34:18.887Z,6.40
2023-05-20T03:36:46.182Z,6.40
2023-05-20T03:39:13.228Z,6.50
2023-05-20T03:41:40.096Z,6.40
2023-05-20T03:44:06.908Z,6.40
2023-05-20T03:46:34.436Z,6.50
2023-05-20T03:49:05.483Z,6.50
2023-05-20T03:51:32.358Z,6.50
2023-05-20T03:53:59.164Z,6.50
2023-05-20T03:56:26.485Z,6.60
2023-05-20T03:58:53.542Z,6.70
2023-05-20T04:01:21.308Z,6.70
2023-05-20T04:03:48.284Z,6.70
2023-05-20T04:06:15.195Z,6.80
2023-05-20T04:08:42.361Z,6.80
2023-05-20T04:11:09.230Z,6.80
2023-05-20T04:13:36.006Z,6.90
2023-05-20T04:16:05.375Z,7.00
2023-05-20T04:18:32.270Z,7.00
2023-05-20T04:21:01.962Z,7.10
2023-05-20T04:23:29.201Z,7.10
2023-05-20T04:25:56.109Z,7.10
2023-05-20T04:28:24.022Z,7.10
2023-05-20T04:30:59.203Z,7.20
2023-05-20T04:33:27.068Z,7.20
2023-05-20T04:35:58.609Z,7.30
2023-05-20T04:38:32.620Z,7.30
2023-05-20T04:41:00.298Z,7.40
2023-05-20T04:43:30.020Z,7.50
2023-05-20T04:45:57.734Z,7.50
2023-05-20T04:48:24.648Z,7.60
2023-05-20T04:50:54.495Z,7.60
2023-05-20T04:53:24.050Z,7.60
2023-05-20T04:55:55.142Z,7.70
2023-05-20T04:58:24.253Z,7.80
2023-05-20T05:00:52.237Z,7.80
2023-05-20T05:03:19.142Z,7.90
2023-05-20T05:05:46.151Z,8.00
2023-05-20T05:08:12.955Z,8.10
2023-05-20T05:10:39.843Z,8.20
2023-05-20T05:13:06.690Z,8.30
2023-05-20T05:15:33.766Z,8.40
2023-05-20T05:18:00.830Z,8.50
2023-05-20T05:20:27.670Z,8.50
2023-05-20T05:22:54.534Z,8.70
2023-05-20T05:25:21.380Z,8.70
2023-05-20T05:27:51.058Z,8.80
2023-05-20T05:30:18.383Z,8.90
2023-05-20T05:32:45.490Z,9.10
2023-05-20T05:35:12.689Z,9.20
2023-05-20T05:37:39.523Z,9.30
2023-05-20T05:40:08.210Z,9.40
2023-05-20T05:42:35.017Z,9.50
2023-05-20T05:45:01.882Z,9.60
2023-05-20T05:47:32.502Z,9.70
2023-05-20T05:50:02.990Z,9.80
2023-05-20T05:52:29.845Z,10.00
2023-05-20T05:54:56.729Z,10.10
2023-05-20T05:57:23.497Z,10.20
2023-05-20T05:59:50.409Z,10.40
2023-05-20T06:02:17.491Z,10.50
2023-05-20T06:04:44.418Z,10.60
2023-05-20T06:07:11.215Z,10.70
2023-05-20T06:09:39.020Z,10.90
2023-05-20T06:12:06.135Z,11.10
2023-05-20T06:14:33.046Z,11.30
2023-05-20T06:17:00.260Z,11.50
2023-05-20T06:19:27.194Z,11.60
2023-05-20T06:21:54.027Z,11.90
2023-05-20T06:24:22.344Z,12.10
2023-05-20T06:26:51.120Z,12.40
2023-05-20T06:29:17.986Z,12.80
2023-05-20T06:31:44.873Z,13.20
2023-05-20T06:34:11.691Z,13.50
2023-05-20T06:36:38.492Z,13.70
2023-05-20T06:39:06.481Z,14.20
2023-05-20T06:41:33.268Z,14.60
2023-05-20T06:44:00.172Z,15.00
2023-05-20T06:46:27.001Z,15.20
2023-05-20T06:48:53.896Z,15.30
2023-05-20T06:51:20.726Z,15.70
2023-05-20T06:53:47.613Z,16.10
2023-05-20T06:56:14.448Z,16.30
2023-05-20T06:58:41.259Z,16.20
2023-05-20T07:01:08.183Z,16.10
2023-05-20T07:03:35.056Z,16.50
2023-05-20T07:06:01.977Z,16.60
2023-05-20T07:08:28.894Z,16.90
2023-05-20T07:10:57.087Z,16.90
2023-05-20T07:13:24.153Z,16.90
2023-05-20T07:15:51.097Z,17.00
2023-05-20T07:18:18.251Z,16.90
2023-05-20T07:20:45.467Z,17.00
2023-05-20T07:23:13.887Z,17.30
2023-05-20T07:25:41.913Z,17.50
2023-05-20T07:28:08.679Z,17.70
2023-05-20T07:30:35.555Z,17.40
2023-05-20T07:33:02.412Z,17.60
2023-05-20T07:35:29.248Z,17.80
2023-05-20T07:37:56.080Z,18.00
2023-05-20T07:40:22.984Z,17.90
2023-05-20T07:42:49.782Z,18.00
2023-05-20T07:45:16.631Z,17.90
2023-05-20T07:47:43.480Z,17.70
2023-05-20T07:50:10.629Z,17.40
2023-05-20T07:52:54.527Z,17.60
2023-05-20T07:55:22.519Z,17.90
2023-05-20T07:57:49.315Z,18.00
2023-05-20T08:00:16.301Z,17.60
2023-05-20T08:02:43.154Z,17.50
2023-05-20T08:05:10.121Z,17.40
2023-05-20T08:07:36.882Z,17.00
2023-05-20T08:10:04.235Z,17.20
2023-05-20T08:12:31.358Z,17.30
2023-05-20T08:14:58.188Z,17.20
2023-05-20T08:17:25.066Z,17.40
2023-05-20T08:19:51.882Z,17.60
2023-05-20T08:22:18.704Z,17.60
2023-05-20T08:24:45.479Z,17.50
2023-05-20T08:27:12.424Z,17.50
2023-05-20T08:29:39.222Z,17.60
2023-05-20T08:32:06.464Z,17.70
2023-05-20T08:34:33.269Z,17.90
2023-05-20T08:37:00.187Z,18.10
2023-05-20T08:39:27.300Z,18.40
2023-05-20T08:41:54.209Z,18.50
2023-05-20T08:44:22.665Z,18.10
2023-05-20T08:46:50.667Z,17.90
2023-05-20T08:49:17.929Z,17.90
2023-05-20T08:51:46.213Z,18.00
2023-05-20T08:54:14.812Z,18.00
2023-05-20T08:56:42.421Z,17.80
2023-05-20T08:59:10.006Z,17.20
2023-05-20T09:01:45.533Z,16.90
2023-05-20T09:04:12.647Z,16.80
2023-05-20T09:06:46.939Z,16.70
2023-05-20T09:09:14.715Z,16.80
2023-05-20T09:11:42.453Z,16.70
2023-05-20T09:14:09.577Z,16.40
2023-05-20T09:16:36.494Z,16.50
2023-05-20T09:19:06.461Z,16.60
2023-05-20T09:21:33.332Z,16.50
2023-05-20T09:24:02.314Z,16.40
2023-05-20T09:26:30.077Z,16.20
2023-05-20T09:28:57.969Z,16.10
2023-05-20T09:31:35.594Z,16.00
2023-05-20T09:34:02.840Z,15.90
2023-05-20T09:36:31.807Z,15.90
2023-05-20T09:39:03.679Z,15.70
2023-05-20T09:41:38.388Z,15.70
2023-05-20T09:44:08.793Z,15.70
2023-05-20T09:46:36.610Z,15.80
2023-05-20T09:49:04.039Z,15.80
2023-05-20T09:51:32.351Z,16.00
2023-05-20T09:54:00.379Z,16.20
2023-05-20T09:56:28.396Z,16.10
2023-05-20T09:58:58.370Z,16.20
2023-05-20T10:01:25.612Z,16.30
2023-05-20T10:03:53.874Z,16.30
2023-05-20T10:06:23.636Z,16.30
2023-05-20T10:09:17.980Z,16.40
2023-05-20T10:12:03.509Z,16.40
2023-05-20T10:14:54.260Z,16.50
2023-05-20T10:18:04.100Z,16.60
2023-05-20T10:20:31.819Z,16.60
2023-05-20T10:22:59.046Z,16.40
2023-05-20T10:25:27.750Z,16.50
2023-05-20T10:28:08.061Z,16.70
2023-05-20T10:30:36.007Z,16.80
2023-05-20T10:33:07.192Z,16.70
2023-05-20T10:35:34.401Z,16.70
2023-05-20T10:38:12.201Z,16.60
2023-05-20T10:40:39.287Z,16.70
2023-05-20T10:43:18.604Z,16.60
2023-05-20T10:45:53.481Z,16.70
2023-05-20T10:48:23.358Z,16.70
2023-05-20T10:50:50.689Z,16.90
2023-05-20T10:53:32.299Z,17.10
2023-05-20T10:56:00.703Z,17.10
2023-05-20T10:58:27.611Z,17.10
2023-05-20T11:00:56.540Z,16.80
2023-05-20T11:03:24.561Z,16.70
2023-05-20T11:05:51.853Z,16.60
2023-05-20T11:08:28.544Z,16.50
2023-05-20T11:11:00.506Z,16.40
2023-05-20T11:13:27.472Z,16.50
2023-05-20T11:15:55.100Z,16.60
2023-05-20T11:18:22.038Z,16.70
2023-05-20T11:20:49.051Z,16.70
2023-05-20T11:23:16.554Z,16.80
2023-05-20T11:25:43.487Z,16.70
2023-05-20T11:28:14.093Z,16.60
2023-05-20T11:30:43.700Z,16.60
2023-05-20T11:33:14.092Z,16.60
2023-05-20T11:35:51.835Z,16.70
2023-05-20T11:38:19.743Z,16.60
2023-05-20T11:40:54.711Z,16.50
2023-05-20T11:43:23.466Z,16.50
2023-05-20T11:46:01.604Z,16.40
2023-05-20T11:48:28.854Z,16.40
2023-05-20T11:50:56.893Z,16.50
2023-05-20T11:53:24.654Z,16.60
2023-05-20T11:55:58.826Z,16.60
2023-05-20T11:58:29.027Z,16.60
2023-05-20T12:01:05.238Z,16.50
2023-05-20T12:03:41.001Z,16.40
2023-05-20T12:06:08.007Z,16.30
2023-05-20T12:08:34.805Z,16.30
2023-05-20T12:11:01.931Z,16.30
2023-05-20T12:13:28.911Z,16.20
2023-05-20T12:15:55.839Z,16.20
2023-05-20T12:18:23.087Z,16.20
2023-05-20T12:20:49.937Z,16.20
2023-05-20T12:23:16.783Z,16.20
2023-05-20T12:25:47.173Z,16.10
2023-05-20T12:28:14.225Z,16.00
2023-05-20T12:30:41.284Z,15.90
2023-05-20T12:33:09.379Z,15.90
2023-05-20T12:35:38.086Z,15.80
2023-05-20T12:38:05.339Z,15.80
2023-05-20T12:40:32.460Z,15.90
2023-05-20T12:43:01.881Z,15.80
2023-05-20T12:45:28.725Z,15.90
2023-05-20T12:47:56.828Z,16.00
2023-05-20T12:50:25.529Z,16.00
2023-05-20T12:52:52.645Z,16.20
2023-05-20T12:55:19.628Z,16.30
2023-05-20T12:57:47.307Z,16.30
2023-05-20T13:00:15.144Z,16.40
2023-05-20T13:02:42.888Z,16.40
2023-05-20T13:05:10.711Z,16.30
2023-05-20T13:07:37.747Z,16.40
2023-05-20T13:10:05.370Z,16.40
2023-05-20T13:12:32.342Z,16.40
2023-05-20T13:14:59.158Z,16.50
2023-05-20T13:17:26.772Z,16.70
2023-05-20T13:19:53.720Z,16.90
2023-05-20T13:22:21.029Z,17.20
2023-05-20T13:24:47.979Z,17.50
2023-05-20T13:27:14.918Z,17.60
2023-05-20T13:29:43.574Z,17.50
2023-05-20T13:32:10.577Z,17.40
2023-05-20T13:34:38.674Z,17.40
2023-05-20T13:37:06.108Z,17.40
2023-05-20T13:39:33.205Z,17.30
2023-05-20T13:42:00.231Z,17.30
2023-05-20T13:44:27.025Z,17.40
2023-05-20T13:46:54.062Z,17.40
2023-05-20T13:49:21.459Z,17.40
2023-05-20T13:51:48.398Z,17.40
2023-05-20T13:54:15.277Z,17.40
2023-05-20T13:56:42.548Z,17.30
2023-05-20T13:59:09.428Z,17.30
2023-05-20T14:01:39.047Z,17.40
2023-05-20T14:04:07.325Z,17.40
2023-05-20T14:06:34.151Z,17.60
2023-05-20T14:09:00.994Z,17.60
2023-05-20T14:11:27.864Z,17.60
2023-05-20T14:13:54.735Z,17.50
2023-05-20T14:16:21.750Z,17.70
2023-05-20T14:18:48.604Z,17.80
2023-05-20T14:21:15.380Z,17.80
2023-05-20T14:23:44.457Z,17.90
2023-05-20T14:26:11.569Z,17.90
2023-05-20T14:28:38.853Z,17.90
2023-05-20T14:31:08.214Z,17.90
2023-05-20T14:33:36.773Z,17.90
2023-05-20T14:36:04.050Z,18.00
2023-05-20T14:38:30.949Z,18.00
2023-05-20T14:40:57.824Z,17.80
2023-05-20T14:43:24.690Z,17.70
2023-05-20T14:45:52.360Z,17.70
2023-05-20T14:48:19.188Z,17.70
2023-05-20T14:50:47.602Z,17.70
2023-05-20T14:53:16.888Z,17.70
2023-05-20T14:55:43.704Z,17.80
2023-05-20T14:58:10.770Z,17.90
2023-05-20T15:00:39.086Z,17.90
2023-05-20T15:03:06.318Z,17.80
2023-05-20T15:05:33.487Z,17.90
2023-05-20T15:08:00.478Z,17.90
2023-05-20T15:10:27.360Z,17.80
2023-05-20T15:12:54.167Z,17.80
2023-05-20T15:15:21.638Z,17.90
2023-05-20T15:17:48.668Z,18.10
2023-05-20T15:20:15.462Z,18.10
2023-05-20T15:22:45.639Z,18.00
2023-05-20T15:25:12.488Z,17.90
2023-05-20T15:27:41.874Z,17.90
2023-05-20T15:30:09.524Z,17.80
2023-05-20T15:32:36.593Z,17.80
2023-05-20T15:35:04.312Z,17.70
2023-05-20T15:37:31.412Z,17.50
2023-05-20T15:39:58.313Z,17.40
2023-05-20T15:42:25.536Z,17.20
2023-05-20T15:44:52.390Z,17.30
2023-05-20T15:47:19.289Z,17.30
2023-05-20T15:49:46.159Z,17.20
2023-05-20T15:52:14.095Z,17.10
2023-05-20T15:54:41.217Z,17.20
2023-05-20T15:57:08.126Z,17.40
2023-05-20T15:59:35.037Z,17.60
2023-05-20T16:02:01.948Z,17.70
2023-05-20T16:04:29.007Z,17.80
2023-05-20T16:06:55.964Z,17.80
2023-05-20T16:09:22.767Z,17.70
2023-05-20T16:11:49.557Z,17.60
2023-05-20T16:14:16.413Z,17.50
2023-05-20T16:16:43.342Z,17.50
2023-05-20T16:19:12.000Z,17.60
2023-05-20T16:21:39.266Z,17.70
2023-05-20T16:24:07.979Z,17.70
2023-05-20T16:26:34.878Z,17.80
2023-05-20T16:29:01.722Z,17.90
2023-05-20T16:31:28.603Z,17.90
2023-05-20T16:33:56.368Z,17.80
2023-05-20T16:36:23.500Z,17.70
2023-05-20T16:38:50.595Z,17.60
2023-05-20T16:41:17.581Z,17.40
2023-05-20T16:43:44.370Z,17.30
2023-05-20T16:46:12.868Z,17.20
2023-05-20T16:48:40.222Z,17.30
2023-05-20T16:51:07.126Z,17.20
2023-05-20T16:53:33.915Z,17.20
2023-05-20T16:56:00.713Z,17.20
2023-05-20T16:58:27.542Z,17.10
2023-05-20T17:00:55.318Z,17.00
2023-05-20T17:03:22.386Z,16.90
2023-05-20T17:05:49.317Z,16.80
2023-05-20T17:08:16.390Z,16.70
2023-05-20T17:10:43.324Z,16.60
2023-05-20T17:13:10.291Z,16.40
2023-05-20T17:15:37.362Z,16.40
2023-05-20T17:18:04.443Z,16.20
2023-05-20T17:20:31.841Z,16.10
2023-05-20T17:22:58.973Z,16.00
2023-05-20T17:25:25.804Z,15.90
2023-05-20T17:27:52.630Z,15.80
2023-05-20T17:30:19.553Z,15.70
2023-05-20T17:32:46.498Z,15.60
2023-05-20T17:35:13.439Z,15.60
2023-05-20T17:37:40.490Z,15.50
2023-05-20T17:40:08.002Z,15.50
2023-05-20T17:42:34.885Z,15.40
2023-05-20T17:45:01.830Z,15.30
2023-05-20T17:47:28.689Z,15.30
2023-05-20T17:49:55.637Z,15.20
2023-05-20T17:52:22.499Z,15.20
2023-05-20T17:54:49.371Z,15.10
2023-05-20T17:57:16.211Z,15.00
2023-05-20T17:59:45.442Z,14.90
2023-05-20T18:02:12.807Z,14.80
2023-05-20T18:04:39.722Z,14.70
2023-05-20T18:07:07.451Z,14.60
2023-05-20T18:09:34.299Z,14.50
2023-05-20T18:12:01.524Z,14.40
2023-05-20T18:14:28.377Z,14.30
2023-05-20T18:16:55.208Z,14.30
2023-05-20T18:19:22.173Z,14.20
2023-05-20T18:21:49.092Z,14.00
2023-05-20T18:24:16.805Z,14.00
2023-05-20T18:26:43.829Z,13.90
2023-05-20T18:29:12.399Z,13.80
2023-05-20T18:31:41.353Z,13.70
2023-05-20T18:34:09.453Z,13.60
2023-05-20T18:36:37.337Z,13.50
2023-05-20T18:39:04.825Z,13.40
2023-05-20T18:41:39.431Z,13.30
2023-05-20T18:44:17.291Z,13.20
2023-05-20T18:46:44.322Z,13.10
2023-05-20T18:49:11.432Z,13.00
2023-05-20T18:51:39.125Z,12.90
2023-05-20T18:54:06.119Z,12.80
2023-05-20T18:56:33.462Z,12.80
2023-05-20T18:59:00.552Z,12.70
2023-05-20T19:01:27.594Z,12.60
2023-05-20T19:03:54.514Z,12.50
2023-05-20T19:06:22.025Z,12.50
2023-05-20T19:08:49.537Z,12.40
2023-05-20T19:11:16.832Z,12.30
2023-05-20T19:13:43.793Z,12.20
2023-05-20T19:16:11.111Z,12.10
2023-05-20T19:18:38.152Z,12.10
2023-05-20T19:21:05.119Z,12.00
2023-05-20T19:23:32.567Z,12.00
2023-05-20T19:25:59.547Z,11.90
2023-05-20T19:28:26.731Z,11.90
2023-05-20T19:30:53.897Z,11.80
2023-05-20T19:33:21.387Z,11.70
2023-05-20T19:35:48.529Z,11.70
2023-05-20T19:38:15.842Z,11.60
2023-05-20T19:40:44.722Z,11.60
2023-05-20T19:43:11.719Z,11.60
2023-05-20T19:45:38.867Z,11.50
2023-05-20T19:48:06.623Z,11.50
2023-05-20T19:50:34.253Z,11.40
2023-05-20T19:53:03.353Z,11.40
2023-05-20T19:55:30.349Z,11.40
2023-05-20T19:57:57.184Z,11.30
2023-05-20T20:00:24.384Z,11.30
2023-05-20T20:02:51.424Z,11.30
2023-05-20T20:05:18.665Z,11.30
2023-05-20T20:07:45.973Z,11.20
2023-05-20T20:10:12.925Z,11.20
2023-05-20T20:12:39.716Z,11.20
2023-05-20T20:15:07.291Z,11.10
2023-05-20T20:17:34.214Z,11.10
2023-05-20T20:20:01.270Z,11.10
2023-05-20T20:22:28.237Z,11.10
2023-05-20T20:24:55.134Z,11.10
2023-05-20T20:27:23.902Z,11.10
2023-05-20T20:29:51.262Z,11.10
2023-05-20T20:32:18.392Z,11.10
2023-05-20T20:34:45.906Z,11.10
2023-05-20T20:37:14.881Z,11.10
2023-05-20T20:39:42.030Z,11.10
2023-05-20T20:42:08.945Z,11.10
2023-05-20T20:44:35.792Z,11.10
2023-05-20T20:47:04.323Z,11.10
2023-05-20T20:49:32.188Z,11.10
2023-05-20T20:51:59.436Z,11.10
2023-05-20T20:54:26.575Z,11.10
2023-05-20T20:56:56.332Z,11.10
2023-05-20T20:59:26.754Z,11.10
2023-05-20T21:01:54.104Z,11.10
2023-05-20T21:04:21.477Z,11.10
2023-05-20T21:06:48.508Z,11.10
2023-05-20T21:09:16.158Z,11.20
2023-05-20T21:11:43.288Z,11.20
2023-05-20T21:14:10.767Z,11.20
2023-05-20T21:16:37.887Z,11.20
2023-05-20T21:19:05.303Z,11.20
2023-05-20T21:21:32.357Z,11.20
2023-05-20T21:23:59.226Z,11.20
2023-05-20T21:26:26.644Z,11.20
2023-05-20T21:28:53.694Z,11.10
2023-05-20T21:31:20.694Z,11.10
2023-05-20T21:33:47.537Z,11.10
2023-05-20T21:36:14.454Z,11.10
2023-05-20T21:38:41.276Z,11.20
2023-05-20T21:41:08.385Z,11.10
2023-05-20T21:43:36.004Z,11.10
2023-05-20T21:46:03.071Z,11.10
2023-05-20T21:48:29.949Z,11.10
2023-05-20T21:50:56.845Z,11.10
2023-05-20T21:53:23.735Z,11.10
2023-05-20T21:55:50.855Z,11.10
2023-05-20T21:58:17.700Z,11.10
2023-05-20T22:00:45.005Z,11.10
2023-05-20T22:03:12.964Z,11.10
2023-05-20T22:05:40.899Z,11.10
2023-05-20T22:08:07.892Z,11.10
2023-05-20T22:10:36.404Z,11.00
2023-05-20T22:13:03.306Z,11.00
2023-05-20T22:15:30.547Z,11.00
2023-05-20T22:17:58.492Z,11.00
2023-05-20T22:20:25.606Z,11.00
2023-05-20T22:22:52.554Z,11.00
2023-05-20T22:25:19.492Z,11.00
2023-05-20T22:27:46.379Z,11.00
2023-05-20T22:30:13.524Z,10.90
2023-05-20T22:32:40.849Z,10.90
2023-05-20T22:35:08.265Z,10.90
2023-05-20T22:37:35.620Z,10.90
2023-05-20T22:40:02.487Z,10.90
2023-05-20T22:42:29.344Z,10.80
2023-05-20T22:44:56.363Z,10.80
2023-05-20T22:47:23.249Z,10.90
2023-05-20T22:49:50.751Z,10.80
2023-05-20T22:52:18.519Z,10.80
2023-05-20T22:54:45.379Z,10.80
2023-05-20T22:57:12.249Z,10.80
2023-05-20T22:59:40.427Z,10.80
2023-05-20T23:02:08.143Z,10.70
2023-05-20T23:04:35.095Z,10.70
2023-05-20T23:07:02.008Z,10.70
2023-05-20T23:09:28.907Z,10.70
2023-05-20T23:11:55.874Z,10.70
2023-05-20T23:14:23.238Z,10.70
2023-05-20T23:16:50.156Z,10.70
2023-05-20T23:19:17.171Z,10.70
2023-05-20T23:21:44.027Z,10.70
2023-05-20T23:24:11.973Z,10.70
2023-05-20T23:26:39.564Z,10.70
2023-05-20T23:29:50.488Z,10.70
2023-05-20T23:32:17.411Z,10.70
2023-05-20T23:38:16.828Z,10.70
2023-05-20T23:40:43.703Z,10.70
2023-05-20T23:43:10.504Z,10.70
2023-05-20T23:45:37.478Z,10.70
2023-05-20T23:48:04.747Z,10.70
2023-05-20T23:50:32.663Z,10.70
2023-05-20T23:52:59.837Z,10.70
2023-05-20T23:55:28.405Z,10.70
2023-05-20T23:57:55.396Z,10.70
